createdAt,value
2019-04-25T00:00:13.075Z,54.38
2019-04-25T00:02:45.511Z,54.15
2019-04-25T00:05:13.905Z,53.84
2019-04-25T00:07:47.127Z,53.68
2019-04-25T00:10:15.741Z,53.63
2019-04-25T00:12:53.949Z,54.05
2019-04-25T00:15:23.040Z,53.94
2019-04-25T00:17:55.465Z,54.18
2019-04-25T00:20:23.126Z,54.11
2019-04-25T00:23:03.549Z,54.33
2019-04-25T00:25:44.401Z,54.80
2019-04-25T00:28:28.560Z,54.85
2019-04-25T00:30:57.041Z,55.70
2019-04-25T00:33:25.416Z,55.50
2019-04-25T00:35:54.374Z,55.42
2019-04-25T00:38:29.811Z,56.14
2019-04-25T00:40:56.430Z,55.96
2019-04-25T00:43:31.456Z,55.87
2019-04-25T00:45:58.725Z,56.12
2019-04-25T00:48:27.130Z,55.67
2019-04-25T00:50:55.514Z,55.67
2019-04-25T00:53:26.388Z,55.62
2019-04-25T00:55:58.842Z,55.75
2019-04-25T00:58:34.916Z,56.17
2019-04-25T01:01:04.967Z,56.01
2019-04-25T01:03:44.273Z,56.58
2019-04-25T01:06:16.007Z,55.82
2019-04-25T01:08:51.817Z,56.61
2019-04-25T01:11:23.679Z,56.84
2019-04-25T01:13:50.440Z,56.66
2019-04-25T01:16:20.016Z,56.51
2019-04-25T01:18:49.471Z,57.13
2019-04-25T01:21:18.691Z,56.49
2019-04-25T01:23:47.347Z,55.98
2019-04-25T01:26:18.249Z,57.62
2019-04-25T01:28:51.887Z,58.09
2019-04-25T01:31:24.945Z,57.84
2019-04-25T01:33:54.602Z,58.37
2019-04-25T01:36:41.863Z,58.75
2019-04-25T01:39:14.364Z,61.12
2019-04-25T01:42:01.106Z,64.59
2019-04-25T01:44:34.688Z,65.57
2019-04-25T01:47:04.488Z,67.54
2019-04-25T01:49:33.953Z,68.48
2019-04-25T01:52:03.560Z,68.54
2019-04-25T01:54:33.829Z,68.51
2019-04-25T01:57:05.046Z,69.09
2019-04-25T01:59:33.874Z,69.65
2019-04-25T02:02:03.803Z,69.11
2019-04-25T02:04:34.151Z,69.98
2019-04-25T02:07:03.613Z,70.22
2019-04-25T02:09:36.471Z,70.26
2019-04-25T02:12:13.470Z,69.82
2019-04-25T02:14:43.571Z,70.16
2019-04-25T02:17:16.225Z,71.50
2019-04-25T02:19:44.615Z,71.48
2019-04-25T02:22:14.537Z,71.31
2019-04-25T02:24:46.993Z,71.23
2019-04-25T02:27:20.350Z,71.19
2019-04-25T02:29:53.392Z,71.74
2019-04-25T02:32:21.469Z,71.84
2019-04-25T02:34:55.265Z,71.84
2019-04-25T02:37:25.482Z,71.93
2019-04-25T02:39:56.651Z,71.70
2019-04-25T02:42:25.033Z,71.76
2019-04-25T02:45:00.151Z,71.67
2019-04-25T02:47:50.883Z,73.16
2019-04-25T02:50:48.142Z,73.16
2019-04-25T02:53:18.172Z,72.81
2019-04-25T02:55:49.100Z,72.68
2019-04-25T02:58:24.264Z,72.80
2019-04-25T03:03:44.748Z,72.67
2019-04-25T03:06:14.927Z,72.61
2019-04-25T03:08:44.925Z,71.46
2019-04-25T03:11:18.481Z,71.25
2019-04-25T03:13:49.559Z,71.64
2019-04-25T03:16:21.577Z,72.91
2019-04-25T03:18:57.938Z,72.58
2019-04-25T03:21:35.247Z,72.70
2019-04-25T03:24:06.161Z,72.63
2019-04-25T03:26:40.611Z,72.90
2019-04-25T03:29:10.403Z,72.79
2019-04-25T03:31:44.716Z,71.46
2019-04-25T03:34:20.283Z,71.46
2019-04-25T03:36:45.060Z,71.11
2019-04-25T03:39:16.303Z,71.47
2019-04-25T03:41:43.858Z,70.70
2019-04-25T03:44:13.997Z,71.42
2019-04-25T03:46:43.808Z,71.35
2019-04-25T03:49:13.942Z,72.05
2019-04-25T03:51:45.060Z,71.77
2019-04-25T03:54:14.278Z,73.17
2019-04-25T03:56:53.545Z,73.65
2019-04-25T03:59:16.099Z,72.41
2019-04-25T04:01:44.625Z,74.22
2019-04-25T04:04:16.218Z,73.38
2019-04-25T04:06:44.254Z,74.74
2019-04-25T04:09:17.559Z,74.60
2019-04-25T04:11:53.464Z,74.14
2019-04-25T04:14:23.827Z,74.45
2019-04-25T04:17:16.124Z,74.02
2019-04-25T04:19:46.180Z,75.01
2019-04-25T04:22:18.754Z,75.24
2019-04-25T04:24:48.049Z,74.78
2019-04-25T04:27:21.730Z,74.88
2019-04-25T04:29:50.122Z,75.37
2019-04-25T04:32:18.541Z,75.04
2019-04-25T04:34:47.001Z,74.57
2019-04-25T04:37:23.622Z,74.64
2019-04-25T04:39:54.329Z,74.39
2019-04-25T04:42:25.184Z,74.55
2019-04-25T04:44:53.646Z,74.52
2019-04-25T04:47:25.546Z,74.79
2019-04-25T04:49:54.151Z,75.38
2019-04-25T04:52:25.220Z,75.40
2019-04-25T04:55:03.692Z,75.37
2019-04-25T04:57:32.569Z,74.92
2019-04-25T05:00:03.675Z,74.64
2019-04-25T05:02:39.350Z,74.23
2019-04-25T05:05:09.503Z,74.68
2019-04-25T05:07:45.529Z,74.86
2019-04-25T05:10:16.511Z,75.58
2019-04-25T05:12:44.070Z,75.21
2019-04-25T05:15:16.231Z,75.03
2019-04-25T05:17:44.144Z,74.75
2019-04-25T05:20:20.575Z,73.89
2019-04-25T05:22:54.907Z,73.75
2019-04-25T05:25:24.746Z,73.64
2019-04-25T05:28:00.747Z,73.75
2019-04-25T05:30:26.519Z,73.44
2019-04-25T05:32:54.490Z,72.79
2019-04-25T05:35:24.335Z,72.06
2019-04-25T05:37:54.056Z,71.87
2019-04-25T05:40:24.134Z,71.13
2019-04-25T05:42:59.311Z,71.67
2019-04-25T05:45:31.697Z,70.89
2019-04-25T05:48:06.015Z,70.07
2019-04-25T05:50:35.566Z,70.16
2019-04-25T05:53:04.388Z,70.47
2019-04-25T05:55:35.398Z,69.85
2019-04-25T05:58:04.102Z,67.32
2019-04-25T06:00:34.027Z,65.70
2019-04-25T06:03:03.560Z,64.56
2019-04-25T06:05:34.760Z,63.53
2019-04-25T06:08:05.615Z,62.33
2019-04-25T06:10:41.553Z,61.86
2019-04-25T06:13:28.513Z,61.04
2019-04-25T06:16:03.561Z,59.41
2019-04-25T06:18:33.861Z,58.74
2019-04-25T06:21:05.869Z,57.54
2019-04-25T06:23:44.336Z,55.53
2019-04-25T06:26:26.751Z,53.06
2019-04-25T06:28:53.817Z,49.87
2019-04-25T06:31:17.391Z,49.35
2019-04-25T06:33:45.908Z,48.97
2019-04-25T06:36:14.368Z,50.40
2019-04-25T06:38:44.354Z,51.31
2019-04-25T06:41:15.361Z,49.78
2019-04-25T06:43:45.418Z,49.03
2019-04-25T06:46:26.847Z,45.47
2019-04-25T06:49:05.063Z,44.83
2019-04-25T06:51:50.442Z,43.96
2019-04-25T06:54:25.393Z,43.23
2019-04-25T06:56:53.625Z,43.63
2019-04-25T06:59:25.907Z,43.84
2019-04-25T07:01:54.086Z,43.83
2019-04-25T07:04:26.257Z,45.00
2019-04-25T07:06:53.660Z,43.98
2019-04-25T07:09:24.417Z,46.00
2019-04-25T07:11:53.753Z,44.65
2019-04-25T07:14:24.558Z,43.40
2019-04-25T07:16:53.275Z,41.94
2019-04-25T07:19:25.019Z,40.48
2019-04-25T07:21:54.511Z,39.04
2019-04-25T07:24:24.818Z,38.23
2019-04-25T07:27:11.531Z,36.96
2019-04-25T07:29:59.863Z,37.83
2019-04-25T07:32:35.692Z,38.38
2019-04-25T07:35:05.885Z,38.06
2019-04-25T07:37:37.108Z,37.22
2019-04-25T07:40:08.591Z,37.59
2019-04-25T07:42:39.189Z,36.33
2019-04-25T07:45:11.707Z,35.42
2019-04-25T07:47:44.131Z,35.24
2019-04-25T07:50:16.833Z,36.17
2019-04-25T07:52:45.242Z,36.37
2019-04-25T07:55:13.877Z,36.23
2019-04-25T07:57:44.707Z,34.23
2019-04-25T08:00:15.354Z,33.70
2019-04-25T08:02:43.918Z,33.62
2019-04-25T08:05:14.991Z,33.51
2019-04-25T08:07:50.847Z,34.59
2019-04-25T08:10:23.952Z,33.19
2019-04-25T08:12:53.668Z,33.76
2019-04-25T08:15:33.519Z,33.84
2019-04-25T08:18:08.424Z,30.89
2019-04-25T08:20:37.163Z,32.11
2019-04-25T08:23:07.164Z,32.50
2019-04-25T08:25:37.848Z,33.23
2019-04-25T08:28:10.580Z,34.51
2019-04-25T08:30:41.788Z,35.03
2019-04-25T08:33:14.242Z,35.54
2019-04-25T08:36:03.427Z,35.85
2019-04-25T08:38:16.924Z,36.83
2019-04-25T08:40:45.315Z,35.38
2019-04-25T08:43:14.690Z,35.02
2019-04-25T08:45:44.285Z,36.10
2019-04-25T08:48:13.593Z,37.76
2019-04-25T08:50:44.520Z,38.79
2019-04-25T08:53:13.699Z,37.51
2019-04-25T08:55:45.737Z,37.85
2019-04-25T08:58:32.694Z,39.01
2019-04-25T09:01:20.994Z,36.84
2019-04-25T09:04:09.767Z,37.79
2019-04-25T09:06:44.257Z,37.61
2019-04-25T09:09:15.535Z,37.74
2019-04-25T09:11:46.909Z,38.22
2019-04-25T09:14:20.604Z,39.00
2019-04-25T09:16:48.987Z,38.45
2019-04-25T09:19:20.246Z,38.30
2019-04-25T09:21:51.105Z,38.61
2019-04-25T09:24:24.415Z,37.73
2019-04-25T09:26:54.204Z,39.64
2019-04-25T09:29:24.649Z,36.57
2019-04-25T09:31:53.772Z,38.40
2019-04-25T09:34:23.704Z,36.23
2019-04-25T09:36:53.631Z,36.41
2019-04-25T09:39:26.209Z,37.08
2019-04-25T09:41:54.588Z,37.53
2019-04-25T09:44:26.024Z,36.00
2019-04-25T09:46:54.393Z,35.99
2019-04-25T09:49:24.439Z,35.96
2019-04-25T09:51:54.476Z,35.62
2019-04-25T09:54:31.175Z,37.69
2019-04-25T09:57:06.735Z,36.60
2019-04-25T09:59:36.229Z,36.60
2019-04-25T10:02:06.326Z,36.19
2019-04-25T10:04:34.732Z,36.28
2019-04-25T10:07:05.026Z,35.66
2019-04-25T10:09:37.188Z,35.67
2019-04-25T10:12:05.953Z,37.62
2019-04-25T10:14:48.848Z,34.21
2019-04-25T10:17:16.003Z,33.97
2019-04-25T10:19:45.614Z,35.73
2019-04-25T10:22:21.290Z,35.16
2019-04-25T10:24:59.993Z,35.44
2019-04-25T10:27:19.709Z,36.75
2019-04-25T10:29:53.668Z,37.22
2019-04-25T10:32:23.766Z,34.96
2019-04-25T10:34:54.344Z,34.03
2019-04-25T10:37:22.728Z,35.63
2019-04-25T10:39:51.476Z,34.42
2019-04-25T10:42:20.925Z,34.08
2019-04-25T10:44:50.473Z,34.35
2019-04-25T10:47:18.829Z,32.95
2019-04-25T10:49:48.249Z,33.88
2019-04-25T10:52:20.914Z,33.41
2019-04-25T10:54:54.264Z,34.02
2019-04-25T10:57:24.786Z,34.28
2019-04-25T11:00:05.629Z,33.35
2019-04-25T11:02:23.650Z,33.01
2019-04-25T11:04:54.526Z,34.72
2019-04-25T11:07:28.703Z,32.22
2019-04-25T11:09:58.206Z,33.06
2019-04-25T11:12:27.677Z,33.14
2019-04-25T11:14:58.620Z,32.88
2019-04-25T11:17:27.624Z,32.60
2019-04-25T11:20:05.527Z,34.38
2019-04-25T11:22:34.279Z,34.08
2019-04-25T11:25:05.164Z,33.41
2019-04-25T11:27:33.996Z,32.35
2019-04-25T11:30:10.922Z,31.59
2019-04-25T11:32:36.110Z,31.66
2019-04-25T11:35:07.770Z,33.05
2019-04-25T11:37:37.196Z,32.58
2019-04-25T11:40:14.417Z,31.80
2019-04-25T11:42:45.921Z,31.64
2019-04-25T11:45:14.641Z,31.90
2019-04-25T11:47:49.575Z,33.21
2019-04-25T11:50:21.840Z,30.61
2019-04-25T11:52:50.503Z,30.40
2019-04-25T11:55:30.347Z,30.98
2019-04-25T11:58:17.256Z,31.20
2019-04-25T12:00:47.115Z,30.94
2019-04-25T12:03:15.712Z,29.58
2019-04-25T12:05:45.844Z,28.55
2019-04-25T12:08:14.488Z,28.59
2019-04-25T12:10:47.874Z,30.25
2019-04-25T12:13:18.898Z,29.84
2019-04-25T12:15:54.832Z,28.86
2019-04-25T12:18:23.497Z,29.64
2019-04-25T12:20:51.874Z,28.74
2019-04-25T12:23:23.365Z,28.29
2019-04-25T12:25:54.046Z,29.17
2019-04-25T12:28:23.519Z,29.04
2019-04-25T12:30:54.698Z,27.77
2019-04-25T12:33:25.866Z,28.30
2019-04-25T12:35:54.175Z,29.94
2019-04-25T12:38:26.239Z,28.94
2019-04-25T12:40:55.327Z,27.28
2019-04-25T12:43:31.142Z,27.02
2019-04-25T12:46:08.055Z,28.15
2019-04-25T12:48:36.441Z,28.17
2019-04-25T12:51:07.429Z,27.27
2019-04-25T12:53:36.268Z,28.05
2019-04-25T12:56:04.722Z,29.07
2019-04-25T12:58:33.510Z,29.70
2019-04-25T13:01:09.650Z,27.84
2019-04-25T13:03:38.013Z,28.14
2019-04-25T13:06:13.652Z,27.98
2019-04-25T13:08:44.102Z,27.30
2019-04-25T13:11:13.955Z,28.62
2019-04-25T13:13:43.621Z,27.50
2019-04-25T13:16:14.207Z,28.33
2019-04-25T13:18:42.603Z,27.23
2019-04-25T13:21:14.520Z,26.92
2019-04-25T13:23:45.604Z,28.74
2019-04-25T13:26:16.715Z,27.17
2019-04-25T13:29:05.161Z,27.23
2019-04-25T13:31:41.553Z,27.56
2019-04-25T13:34:15.317Z,27.35
2019-04-25T13:36:44.294Z,27.22
2019-04-25T13:39:19.438Z,28.66
2019-04-25T13:41:54.352Z,28.74
2019-04-25T13:44:24.423Z,28.31
2019-04-25T13:46:56.399Z,27.92
2019-04-25T13:49:25.062Z,26.00
2019-04-25T13:51:53.486Z,27.32
2019-04-25T13:54:25.047Z,27.89
2019-04-25T13:56:54.719Z,26.78
2019-04-25T13:59:25.736Z,26.96
2019-04-25T14:01:57.724Z,27.28
2019-04-25T14:04:28.323Z,28.14
2019-04-25T14:06:59.148Z,28.76
2019-04-25T14:09:30.484Z,27.44
2019-04-25T14:12:04.020Z,27.57
2019-04-25T14:14:41.436Z,27.73
2019-04-25T14:17:29.672Z,27.55
2019-04-25T14:20:14.114Z,27.50
2019-04-25T14:22:45.359Z,28.52
2019-04-25T14:25:14.932Z,28.36
2019-04-25T14:27:44.549Z,27.94
2019-04-25T14:30:14.757Z,28.70
2019-04-25T14:32:43.562Z,28.52
2019-04-25T14:35:12.290Z,27.50
2019-04-25T14:37:40.685Z,27.63
2019-04-25T14:40:10.085Z,27.68
2019-04-25T14:42:40.971Z,27.37
2019-04-25T14:45:13.604Z,26.66
2019-04-25T14:47:41.992Z,27.84
2019-04-25T14:50:12.963Z,27.40
2019-04-25T14:52:41.357Z,26.54
2019-04-25T14:55:33.751Z,27.60
2019-04-25T14:58:04.185Z,26.88
2019-04-25T15:00:42.960Z,26.88
2019-04-25T15:03:15.495Z,28.23
2019-04-25T15:05:44.138Z,26.72
2019-04-25T15:08:12.519Z,26.98
2019-04-25T15:10:44.694Z,27.02
2019-04-25T15:13:13.140Z,26.51
2019-04-25T15:15:45.603Z,27.08
2019-04-25T15:18:15.130Z,27.23
2019-04-25T15:20:46.103Z,27.49
2019-04-25T15:23:14.495Z,27.54
2019-04-25T15:25:42.880Z,27.29
2019-04-25T15:28:14.880Z,26.36
2019-04-25T15:30:46.036Z,26.78
2019-04-25T15:33:14.523Z,26.69
2019-04-25T15:35:59.301Z,26.87
2019-04-25T15:38:38.189Z,27.03
2019-04-25T15:41:08.559Z,26.97
2019-04-25T15:43:54.977Z,27.04
2019-04-25T15:46:32.772Z,27.63
2019-04-25T15:49:03.903Z,27.18
2019-04-25T15:51:32.719Z,27.23
2019-04-25T15:54:01.177Z,27.96
2019-04-25T15:56:30.616Z,27.92
2019-04-25T15:58:58.924Z,27.50
2019-04-25T16:01:30.273Z,27.76
2019-04-25T16:04:01.216Z,28.26
2019-04-25T16:06:31.652Z,29.07
2019-04-25T16:09:00.202Z,29.21
2019-04-25T16:11:28.673Z,29.41
2019-04-25T16:14:02.085Z,29.41
2019-04-25T16:16:30.542Z,30.12
2019-04-25T16:19:01.512Z,30.14
2019-04-25T16:21:33.883Z,30.39
2019-04-25T16:24:02.267Z,29.46
2019-04-25T16:26:31.459Z,28.94
2019-04-25T16:28:59.979Z,29.16
2019-04-25T16:31:29.235Z,28.91
2019-04-25T16:33:57.717Z,29.75
2019-04-25T16:36:26.132Z,29.41
2019-04-25T16:38:54.559Z,29.15
2019-04-25T16:41:23.722Z,29.22
2019-04-25T16:43:53.745Z,29.22
2019-04-25T16:46:23.337Z,29.52
2019-04-25T16:48:51.803Z,30.32
2019-04-25T16:51:20.262Z,29.96
2019-04-25T16:53:48.667Z,29.75
2019-04-25T16:56:18.169Z,30.00
2019-04-25T16:58:46.643Z,30.05
2019-04-25T17:01:15.815Z,29.69
2019-04-25T17:03:44.753Z,29.83
2019-04-25T17:06:13.399Z,30.03
2019-04-25T17:08:47.070Z,30.38
2019-04-25T17:11:15.828Z,30.80
2019-04-25T17:13:45.885Z,31.24
2019-04-25T17:16:21.848Z,31.26
2019-04-25T17:18:57.933Z,31.78
2019-04-25T17:21:36.905Z,31.23
2019-04-25T17:24:28.461Z,31.73
2019-04-25T17:26:56.853Z,32.08
2019-04-25T17:29:25.376Z,32.51
2019-04-25T17:31:58.492Z,32.81
2019-04-25T17:34:35.353Z,31.60
2019-04-25T17:37:11.687Z,31.48
2019-04-25T17:39:42.173Z,31.38
2019-04-25T17:42:10.618Z,31.59
2019-04-25T17:44:39.026Z,31.87
2019-04-25T17:47:07.422Z,32.06
2019-04-25T17:49:36.678Z,32.29
2019-04-25T17:52:05.334Z,32.17
2019-04-25T17:54:34.215Z,32.57
2019-04-25T17:57:02.683Z,32.82
2019-04-25T17:59:32.286Z,33.15
2019-04-25T18:02:01.677Z,33.44
2019-04-25T18:04:30.131Z,33.93
2019-04-25T18:06:58.516Z,34.26
2019-04-25T18:09:26.895Z,34.03
2019-04-25T18:11:55.320Z,34.10
2019-04-25T18:14:23.810Z,34.26
2019-04-25T18:16:52.304Z,34.59
2019-04-25T18:19:25.915Z,34.54
2019-04-25T18:21:55.940Z,34.89
2019-04-25T18:24:41.236Z,35.17
2019-04-25T18:27:20.401Z,34.88
2019-04-25T18:29:48.785Z,35.07
2019-04-25T18:32:17.160Z,34.95
2019-04-25T18:34:59.445Z,35.32
2019-04-25T18:37:29.465Z,35.65
2019-04-25T18:40:08.325Z,35.93
2019-04-25T18:42:38.346Z,36.21
2019-04-25T18:45:08.295Z,36.49
2019-04-25T18:47:36.968Z,36.92
2019-04-25T18:50:08.368Z,37.16
2019-04-25T18:52:45.056Z,37.38
2019-04-25T18:55:17.087Z,37.66
2019-04-25T18:57:48.059Z,37.70
2019-04-25T19:00:30.655Z,37.76
2019-04-25T19:03:22.478Z,38.09
2019-04-25T19:05:47.317Z,38.50
2019-04-25T19:08:15.717Z,39.14
2019-04-25T19:10:45.038Z,39.04
2019-04-25T19:13:13.651Z,39.74
2019-04-25T19:15:43.006Z,39.33
2019-04-25T19:18:11.514Z,39.64
2019-04-25T19:20:40.033Z,39.97
2019-04-25T19:23:08.469Z,40.49
2019-04-25T19:25:36.881Z,40.16
2019-04-25T19:28:05.264Z,40.68
2019-04-25T19:30:33.735Z,40.56
2019-04-25T19:33:02.113Z,40.57
2019-04-25T19:35:30.517Z,40.50
2019-04-25T19:37:58.910Z,40.59
2019-04-25T19:40:30.344Z,40.71
2019-04-25T19:43:06.488Z,40.81
2019-04-25T19:45:34.881Z,41.03
2019-04-25T19:48:03.266Z,41.04
2019-04-25T19:50:31.676Z,41.73
2019-04-25T19:53:00.080Z,41.32
2019-04-25T19:55:28.484Z,41.76
2019-04-25T19:57:56.909Z,41.56
2019-04-25T20:00:25.304Z,42.19
2019-04-25T20:03:07.389Z,42.27
2019-04-25T20:05:44.177Z,42.12
2019-04-25T20:08:32.321Z,42.41
2019-04-25T20:11:11.097Z,42.52
2019-04-25T20:13:39.497Z,42.29
2019-04-25T20:16:07.879Z,43.38
2019-04-25T20:18:36.289Z,43.34
2019-04-25T20:21:04.689Z,43.61
2019-04-25T20:23:33.071Z,43.71
2019-04-25T20:26:01.478Z,44.67
2019-04-25T20:28:29.893Z,44.17
2019-04-25T20:30:58.271Z,45.69
2019-04-25T20:33:26.785Z,46.34
2019-04-25T20:35:55.326Z,46.44
2019-04-25T20:38:27.112Z,46.63
2019-04-25T20:40:56.509Z,47.00
2019-04-25T20:43:24.878Z,46.84
2019-04-25T20:45:54.401Z,47.24
2019-04-25T20:48:34.908Z,47.09
2019-04-25T20:51:03.376Z,47.23
2019-04-25T20:53:31.768Z,47.92
2019-04-25T20:56:00.155Z,47.16
2019-04-25T20:58:28.613Z,46.74
2019-04-25T21:00:58.607Z,47.53
2019-04-25T21:03:27.012Z,48.27
2019-04-25T21:06:00.552Z,47.58
2019-04-25T21:08:28.971Z,48.24
2019-04-25T21:10:58.932Z,47.85
2019-04-25T21:13:29.104Z,46.89
2019-04-25T21:16:15.346Z,47.57
2019-04-25T21:18:45.630Z,47.76
2019-04-25T21:21:14.066Z,46.42
2019-04-25T21:23:42.791Z,46.05
2019-04-25T21:26:11.300Z,46.62
2019-04-25T21:28:40.056Z,47.65
2019-04-25T21:31:09.015Z,46.46
2019-04-25T21:33:37.581Z,47.86
2019-04-25T21:36:07.354Z,46.91
2019-04-25T21:38:36.068Z,47.48
2019-04-25T21:41:09.443Z,46.86
2019-04-25T21:43:45.903Z,46.28
2019-04-25T21:46:14.687Z,46.77
2019-04-25T21:48:43.347Z,46.44
2019-04-25T21:51:30.654Z,46.44
2019-04-25T21:54:05.004Z,46.47
2019-04-25T21:56:33.594Z,45.87
2019-04-25T21:59:02.092Z,46.25
2019-04-25T22:01:35.025Z,45.99
2019-04-25T22:04:03.702Z,46.15
2019-04-25T22:06:33.619Z,45.85
2019-04-25T22:09:02.981Z,45.81
2019-04-25T22:11:31.808Z,45.98
2019-04-25T22:14:01.374Z,45.77
2019-04-25T22:16:30.224Z,46.09
2019-04-25T22:18:59.873Z,45.97
2019-04-25T22:21:37.806Z,46.49
2019-04-25T22:24:08.674Z,46.13
2019-04-25T22:26:28.809Z,46.31
2019-04-25T22:28:57.825Z,46.34
2019-04-25T22:31:41.110Z,46.61
2019-04-25T22:34:11.465Z,46.47
2019-04-25T22:36:42.540Z,46.43
2019-04-25T22:39:11.774Z,46.53
2019-04-25T22:41:47.205Z,46.63
2019-04-25T22:44:16.072Z,46.64
2019-04-25T22:46:44.932Z,46.81
2019-04-25T22:49:13.299Z,46.94
2019-04-25T22:51:41.705Z,47.17
2019-04-25T22:54:10.355Z,47.27
2019-04-25T22:56:38.788Z,47.90
2019-04-25T22:59:07.660Z,48.22
2019-04-25T23:01:46.570Z,47.90
2019-04-25T23:04:34.750Z,48.72
2019-04-25T23:07:04.084Z,48.20
2019-04-25T23:09:34.133Z,48.70
2019-04-25T23:12:03.821Z,48.68
2019-04-25T23:14:33.014Z,48.81
2019-04-25T23:17:01.604Z,48.77
2019-04-25T23:19:31.278Z,48.53
2019-04-25T23:22:03.087Z,48.53
2019-04-25T23:24:38.269Z,49.17
2019-04-25T23:27:08.562Z,49.39
2019-04-25T23:29:37.752Z,49.05
2019-04-25T23:32:06.806Z,49.52
2019-04-25T23:34:35.264Z,49.37
2019-04-25T23:37:04.725Z,49.95
2019-04-25T23:39:34.391Z,49.42
2019-04-25T23:42:03.017Z,49.50
2019-04-25T23:44:31.417Z,50.34
2019-04-25T23:46:59.918Z,49.92
2019-04-25T23:49:28.322Z,50.47
2019-04-25T23:51:56.995Z,50.50
2019-04-25T23:54:25.549Z,50.43
2019-04-25T23:56:54.243Z,50.19
2019-04-25T23:59:22.634Z,49.57
